sensor_id;sensor_type;location;lat;lon;timestamp;P1;durP1;ratioP1;P2;durP2;ratioP2
67747;SDS011;54543;50.712;6.070;2022-12-19T00:01:50;15.60;;;7.28;;
67747;SDS011;54543;50.712;6.070;2022-12-19T00:04:16;12.40;;;6.88;;
67747;SDS011;54543;50.712;6.070;2022-12-19T00:06:44;14.73;;;6.78;;
67747;SDS011;54543;50.712;6.070;2022-12-19T00:09:10;14.77;;;6.65;;
67747;SDS011;54543;50.712;6.070;2022-12-19T00:11:36;13.27;;;6.57;;
67747;SDS011;54543;50.712;6.070;2022-12-19T00:14:03;15.02;;;6.95;;
67747;SDS011;54543;50.712;6.070;2022-12-19T00:16:28;13.82;;;6.20;;
67747;SDS011;54543;50.712;6.070;2022-12-19T00:18:55;12.45;;;6.53;;
67747;SDS011;54543;50.712;6.070;2022-12-19T00:21:23;14.18;;;6.57;;
67747;SDS011;54543;50.712;6.070;2022-12-19T00:23:50;13.00;;;6.18;;
67747;SDS011;54543;50.712;6.070;2022-12-19T00:26:18;12.52;;;6.00;;
67747;SDS011;54543;50.712;6.070;2022-12-19T00:28:47;12.88;;;6.60;;
67747;SDS011;54543;50.712;6.070;2022-12-19T00:31:14;10.10;;;5.22;;
67747;SDS011;54543;50.712;6.070;2022-12-19T00:33:42;12.52;;;6.53;;
67747;SDS011;54543;50.712;6.070;2022-12-19T00:36:12;13.23;;;5.40;;
67747;SDS011;54543;50.712;6.070;2022-12-19T00:38:49;10.80;;;5.30;;
67747;SDS011;54543;50.712;6.070;2022-12-19T00:41:17;9.68;;;5.32;;
67747;SDS011;54543;50.712;6.070;2022-12-19T00:43:45;10.57;;;5.07;;
67747;SDS011;54543;50.712;6.070;2022-12-19T00:46:12;12.00;;;5.57;;
67747;SDS011;54543;50.712;6.070;2022-12-19T00:48:39;11.88;;;6.22;;
67747;SDS011;54543;50.712;6.070;2022-12-19T00:51:06;14.48;;;6.78;;
67747;SDS011;54543;50.712;6.070;2022-12-19T00:53:36;14.15;;;6.60;;
67747;SDS011;54543;50.712;6.070;2022-12-19T00:56:03;12.55;;;7.13;;
67747;SDS011;54543;50.712;6.070;2022-12-19T00:58:30;10.38;;;5.47;;
67747;SDS011;54543;50.712;6.070;2022-12-19T01:00:55;11.82;;;6.82;;
67747;SDS011;54543;50.712;6.070;2022-12-19T01:03:22;15.65;;;7.45;;
67747;SDS011;54543;50.712;6.070;2022-12-19T01:05:49;11.70;;;6.30;;
67747;SDS011;54543;50.712;6.070;2022-12-19T01:08:15;15.98;;;7.75;;
67747;SDS011;54543;50.712;6.070;2022-12-19T01:10:44;11.93;;;6.00;;
67747;SDS011;54543;50.712;6.070;2022-12-19T01:13:11;11.90;;;6.15;;
67747;SDS011;54543;50.712;6.070;2022-12-19T01:15:37;14.07;;;7.38;;
67747;SDS011;54543;50.712;6.070;2022-12-19T01:18:05;12.85;;;6.53;;
67747;SDS011;54543;50.712;6.070;2022-12-19T01:20:34;14.88;;;6.30;;
67747;SDS011;54543;50.712;6.070;2022-12-19T01:23:02;10.88;;;5.05;;
67747;SDS011;54543;50.712;6.070;2022-12-19T01:25:28;9.95;;;5.32;;
67747;SDS011;54543;50.712;6.070;2022-12-19T01:27:53;9.77;;;5.05;;
67747;SDS011;54543;50.712;6.070;2022-12-19T01:30:20;12.55;;;5.72;;
67747;SDS011;54543;50.712;6.070;2022-12-19T01:32:46;12.20;;;5.00;;
67747;SDS011;54543;50.712;6.070;2022-12-19T01:35:11;13.63;;;7.05;;
67747;SDS011;54543;50.712;6.070;2022-12-19T01:37:37;12.88;;;6.03;;
67747;SDS011;54543;50.712;6.070;2022-12-19T01:40:02;11.43;;;6.25;;
67747;SDS011;54543;50.712;6.070;2022-12-19T01:42:32;11.85;;;5.90;;
67747;SDS011;54543;50.712;6.070;2022-12-19T01:48:16;12.57;;;6.15;;
67747;SDS011;54543;50.712;6.070;2022-12-19T01:50:29;10.60;;;5.47;;
67747;SDS011;54543;50.712;6.070;2022-12-19T01:53:00;12.57;;;6.70;;
67747;SDS011;54543;50.712;6.070;2022-12-19T01:55:27;11.60;;;6.05;;
67747;SDS011;54543;50.712;6.070;2022-12-19T01:57:53;10.90;;;5.65;;
67747;SDS011;54543;50.712;6.070;2022-12-19T02:00:20;9.48;;;4.47;;
67747;SDS011;54543;50.712;6.070;2022-12-19T02:03:06;11.02;;;5.65;;
67747;SDS011;54543;50.712;6.070;2022-12-19T02:05:36;10.00;;;5.38;;
67747;SDS011;54543;50.712;6.070;2022-12-19T02:08:03;10.73;;;5.65;;
67747;SDS011;54543;50.712;6.070;2022-12-19T02:10:29;10.40;;;5.60;;
67747;SDS011;54543;50.712;6.070;2022-12-19T02:12:54;12.30;;;5.75;;
67747;SDS011;54543;50.712;6.070;2022-12-19T02:15:20;12.13;;;6.00;;
67747;SDS011;54543;50.712;6.070;2022-12-19T02:31:30;11.68;;;5.70;;
67747;SDS011;54543;50.712;6.070;2022-12-19T02:36:51;11.93;;;5.68;;
67747;SDS011;54543;50.712;6.070;2022-12-19T02:41:56;12.35;;;6.30;;
67747;SDS011;54543;50.712;6.070;2022-12-19T02:44:34;13.82;;;6.05;;
67747;SDS011;54543;50.712;6.070;2022-12-19T02:47:06;12.07;;;5.70;;
67747;SDS011;54543;50.712;6.070;2022-12-19T02:49:33;10.50;;;5.47;;
67747;SDS011;54543;50.712;6.070;2022-12-19T02:52:10;12.25;;;6.00;;
67747;SDS011;54543;50.712;6.070;2022-12-19T02:54:37;11.38;;;5.85;;
67747;SDS011;54543;50.712;6.070;2022-12-19T02:57:18;13.18;;;6.63;;
67747;SDS011;54543;50.712;6.070;2022-12-19T03:00:04;9.93;;;5.38;;
67747;SDS011;54543;50.712;6.070;2022-12-19T03:05:30;11.32;;;5.90;;
67747;SDS011;54543;50.712;6.070;2022-12-19T03:08:37;11.38;;;5.80;;
67747;SDS011;54543;50.712;6.070;2022-12-19T03:11:13;8.80;;;5.22;;
67747;SDS011;54543;50.712;6.070;2022-12-19T03:13:43;10.15;;;5.43;;
67747;SDS011;54543;50.712;6.070;2022-12-19T03:16:17;8.75;;;4.18;;
67747;SDS011;54543;50.712;6.070;2022-12-19T03:18:43;9.45;;;5.15;;
67747;SDS011;54543;50.712;6.070;2022-12-19T03:24:01;12.05;;;6.22;;
67747;SDS011;54543;50.712;6.070;2022-12-19T03:26:30;8.63;;;4.97;;
67747;SDS011;54543;50.712;6.070;2022-12-19T03:29:00;10.13;;;5.32;;
67747;SDS011;54543;50.712;6.070;2022-12-19T03:31:39;9.35;;;5.13;;
67747;SDS011;54543;50.712;6.070;2022-12-19T03:34:09;9.82;;;5.25;;
67747;SDS011;54543;50.712;6.070;2022-12-19T03:36:46;11.93;;;6.25;;
67747;SDS011;54543;50.712;6.070;2022-12-19T03:39:16;10.18;;;5.55;;
67747;SDS011;54543;50.712;6.070;2022-12-19T03:41:44;10.10;;;6.22;;
67747;SDS011;54543;50.712;6.070;2022-12-19T03:44:32;11.52;;;5.57;;
67747;SDS011;54543;50.712;6.070;2022-12-19T03:49:47;9.23;;;5.20;;
67747;SDS011;54543;50.712;6.070;2022-12-19T03:58:12;8.30;;;4.47;;
67747;SDS011;54543;50.712;6.070;2022-12-19T04:00:45;8.60;;;4.68;;
67747;SDS011;54543;50.712;6.070;2022-12-19T04:03:12;9.23;;;5.47;;
67747;SDS011;54543;50.712;6.070;2022-12-19T04:05:41;7.97;;;4.15;;
67747;SDS011;54543;50.712;6.070;2022-12-19T04:08:08;9.57;;;5.57;;
67747;SDS011;54543;50.712;6.070;2022-12-19T04:10:37;7.72;;;4.57;;
67747;SDS011;54543;50.712;6.070;2022-12-19T04:13:12;8.85;;;5.18;;
67747;SDS011;54543;50.712;6.070;2022-12-19T04:15:48;7.40;;;4.32;;
67747;SDS011;54543;50.712;6.070;2022-12-19T04:18:21;7.88;;;4.38;;
67747;SDS011;54543;50.712;6.070;2022-12-19T04:21:21;7.93;;;4.07;;
67747;SDS011;54543;50.712;6.070;2022-12-19T04:23:44;8.57;;;4.68;;
67747;SDS011;54543;50.712;6.070;2022-12-19T04:26:20;6.47;;;3.53;;
67747;SDS011;54543;50.712;6.070;2022-12-19T04:28:49;7.00;;;3.97;;
67747;SDS011;54543;50.712;6.070;2022-12-19T04:31:20;7.25;;;4.47;;
67747;SDS011;54543;50.712;6.070;2022-12-19T04:33:47;6.95;;;3.53;;
67747;SDS011;54543;50.712;6.070;2022-12-19T04:36:13;6.38;;;3.45;;
67747;SDS011;54543;50.712;6.070;2022-12-19T04:38:38;7.10;;;3.45;;
67747;SDS011;54543;50.712;6.070;2022-12-19T04:41:04;7.95;;;3.75;;
67747;SDS011;54543;50.712;6.070;2022-12-19T04:43:30;6.63;;;3.58;;
67747;SDS011;54543;50.712;6.070;2022-12-19T04:45:55;6.47;;;3.75;;
67747;SDS011;54543;50.712;6.070;2022-12-19T04:48:21;7.75;;;3.67;;
67747;SDS011;54543;50.712;6.070;2022-12-19T04:50:46;7.50;;;3.63;;
67747;SDS011;54543;50.712;6.070;2022-12-19T04:53:12;6.53;;;3.35;;
67747;SDS011;54543;50.712;6.070;2022-12-19T04:55:38;6.70;;;4.10;;
67747;SDS011;54543;50.712;6.070;2022-12-19T04:58:05;8.38;;;4.82;;
67747;SDS011;54543;50.712;6.070;2022-12-19T05:00:31;7.78;;;4.60;;
67747;SDS011;54543;50.712;6.070;2022-12-19T05:02:57;7.20;;;3.80;;
67747;SDS011;54543;50.712;6.070;2022-12-19T05:05:23;7.40;;;4.45;;
67747;SDS011;54543;50.712;6.070;2022-12-19T05:07:48;7.32;;;4.28;;
67747;SDS011;54543;50.712;6.070;2022-12-19T05:10:15;8.50;;;4.63;;
67747;SDS011;54543;50.712;6.070;2022-12-19T05:12:41;7.38;;;4.22;;
67747;SDS011;54543;50.712;6.070;2022-12-19T05:15:06;8.57;;;4.13;;
67747;SDS011;54543;50.712;6.070;2022-12-19T05:17:32;7.53;;;4.18;;
67747;SDS011;54543;50.712;6.070;2022-12-19T05:19:57;7.05;;;4.18;;
67747;SDS011;54543;50.712;6.070;2022-12-19T05:22:23;5.78;;;3.53;;
67747;SDS011;54543;50.712;6.070;2022-12-19T05:24:48;11.18;;;6.22;;
67747;SDS011;54543;50.712;6.070;2022-12-19T05:27:14;6.15;;;4.07;;
67747;SDS011;54543;50.712;6.070;2022-12-19T05:29:39;7.35;;;4.40;;
67747;SDS011;54543;50.712;6.070;2022-12-19T05:32:05;8.38;;;4.60;;
67747;SDS011;54543;50.712;6.070;2022-12-19T05:34:31;9.15;;;5.38;;
67747;SDS011;54543;50.712;6.070;2022-12-19T05:36:56;7.90;;;4.40;;
67747;SDS011;54543;50.712;6.070;2022-12-19T05:39:23;6.82;;;4.30;;
67747;SDS011;54543;50.712;6.070;2022-12-19T05:41:48;6.20;;;3.95;;
67747;SDS011;54543;50.712;6.070;2022-12-19T05:44:14;7.10;;;4.10;;
67747;SDS011;54543;50.712;6.070;2022-12-19T05:46:39;7.30;;;4.63;;
67747;SDS011;54543;50.712;6.070;2022-12-19T05:49:05;12.30;;;6.93;;
67747;SDS011;54543;50.712;6.070;2022-12-19T05:51:31;14.48;;;8.95;;
67747;SDS011;54543;50.712;6.070;2022-12-19T05:53:58;9.60;;;5.57;;
67747;SDS011;54543;50.712;6.070;2022-12-19T05:56:24;11.40;;;6.25;;
67747;SDS011;54543;50.712;6.070;2022-12-19T05:58:50;11.38;;;6.68;;
67747;SDS011;54543;50.712;6.070;2022-12-19T06:01:19;9.88;;;5.50;;
67747;SDS011;54543;50.712;6.070;2022-12-19T06:03:46;10.02;;;5.50;;
67747;SDS011;54543;50.712;6.070;2022-12-19T06:06:14;10.23;;;6.22;;
67747;SDS011;54543;50.712;6.070;2022-12-19T06:08:41;9.38;;;5.78;;
67747;SDS011;54543;50.712;6.070;2022-12-19T06:11:07;15.77;;;9.25;;
67747;SDS011;54543;50.712;6.070;2022-12-19T06:13:34;10.32;;;6.55;;
67747;SDS011;54543;50.712;6.070;2022-12-19T06:16:04;9.40;;;5.78;;
67747;SDS011;54543;50.712;6.070;2022-12-19T06:18:31;7.60;;;5.55;;
67747;SDS011;54543;50.712;6.070;2022-12-19T06:20:58;12.38;;;5.97;;
67747;SDS011;54543;50.712;6.070;2022-12-19T06:23:31;13.15;;;6.78;;
67747;SDS011;54543;50.712;6.070;2022-12-19T06:25:59;11.95;;;6.63;;
67747;SDS011;54543;50.712;6.070;2022-12-19T06:28:26;13.38;;;10.70;;
67747;SDS011;54543;50.712;6.070;2022-12-19T06:30:55;25.17;;;19.58;;
67747;SDS011;54543;50.712;6.070;2022-12-19T06:33:22;19.10;;;14.90;;
67747;SDS011;54543;50.712;6.070;2022-12-19T06:35:48;17.20;;;11.75;;
67747;SDS011;54543;50.712;6.070;2022-12-19T06:38:20;16.33;;;9.90;;
67747;SDS011;54543;50.712;6.070;2022-12-19T06:40:46;18.73;;;10.57;;
67747;SDS011;54543;50.712;6.070;2022-12-19T06:43:30;18.42;;;10.65;;
67747;SDS011;54543;50.712;6.070;2022-12-19T06:45:56;14.95;;;8.43;;
67747;SDS011;54543;50.712;6.070;2022-12-19T06:48:22;13.93;;;6.68;;
67747;SDS011;54543;50.712;6.070;2022-12-19T06:50:47;10.88;;;6.20;;
67747;SDS011;54543;50.712;6.070;2022-12-19T06:53:13;10.48;;;6.40;;
67747;SDS011;54543;50.712;6.070;2022-12-19T06:55:38;12.48;;;6.72;;
67747;SDS011;54543;50.712;6.070;2022-12-19T06:58:04;8.45;;;5.40;;
67747;SDS011;54543;50.712;6.070;2022-12-19T07:00:29;10.02;;;5.65;;
67747;SDS011;54543;50.712;6.070;2022-12-19T07:02:58;12.77;;;7.45;;
67747;SDS011;54543;50.712;6.070;2022-12-19T07:05:24;17.80;;;10.20;;
67747;SDS011;54543;50.712;6.070;2022-12-19T07:07:50;14.15;;;8.80;;
67747;SDS011;54543;50.712;6.070;2022-12-19T07:10:16;14.38;;;7.75;;
67747;SDS011;54543;50.712;6.070;2022-12-19T07:12:42;15.40;;;8.82;;
67747;SDS011;54543;50.712;6.070;2022-12-19T07:15:07;20.08;;;10.00;;
67747;SDS011;54543;50.712;6.070;2022-12-19T07:17:33;15.52;;;9.68;;
67747;SDS011;54543;50.712;6.070;2022-12-19T07:19:59;14.98;;;8.35;;
67747;SDS011;54543;50.712;6.070;2022-12-19T07:22:28;10.18;;;6.03;;
67747;SDS011;54543;50.712;6.070;2022-12-19T07:24:57;12.73;;;6.75;;
67747;SDS011;54543;50.712;6.070;2022-12-19T07:27:23;10.80;;;5.82;;
67747;SDS011;54543;50.712;6.070;2022-12-19T07:29:49;11.80;;;7.47;;
67747;SDS011;54543;50.712;6.070;2022-12-19T07:32:14;10.02;;;5.15;;
67747;SDS011;54543;50.712;6.070;2022-12-19T07:34:40;12.70;;;6.57;;
67747;SDS011;54543;50.712;6.070;2022-12-19T07:37:05;8.63;;;5.55;;
67747;SDS011;54543;50.712;6.070;2022-12-19T07:39:32;8.32;;;4.97;;
67747;SDS011;54543;50.712;6.070;2022-12-19T07:41:57;11.23;;;6.72;;
67747;SDS011;54543;50.712;6.070;2022-12-19T07:44:23;9.43;;;5.03;;
67747;SDS011;54543;50.712;6.070;2022-12-19T07:46:48;11.75;;;6.82;;
67747;SDS011;54543;50.712;6.070;2022-12-19T07:49:14;10.48;;;6.00;;
67747;SDS011;54543;50.712;6.070;2022-12-19T07:51:39;7.82;;;4.53;;
67747;SDS011;54543;50.712;6.070;2022-12-19T07:54:05;7.47;;;4.82;;
67747;SDS011;54543;50.712;6.070;2022-12-19T07:56:30;8.57;;;5.07;;
67747;SDS011;54543;50.712;6.070;2022-12-19T07:58:56;8.52;;;5.13;;
67747;SDS011;54543;50.712;6.070;2022-12-19T08:01:22;9.27;;;5.10;;
67747;SDS011;54543;50.712;6.070;2022-12-19T08:03:47;9.63;;;5.05;;
67747;SDS011;54543;50.712;6.070;2022-12-19T08:06:13;9.23;;;5.70;;
67747;SDS011;54543;50.712;6.070;2022-12-19T08:08:38;8.90;;;4.43;;
67747;SDS011;54543;50.712;6.070;2022-12-19T08:11:05;9.95;;;5.78;;
67747;SDS011;54543;50.712;6.070;2022-12-19T08:13:53;9.23;;;5.40;;
67747;SDS011;54543;50.712;6.070;2022-12-19T08:16:19;9.15;;;5.50;;
67747;SDS011;54543;50.712;6.070;2022-12-19T08:18:45;17.48;;;7.90;;
67747;SDS011;54543;50.712;6.070;2022-12-19T08:21:12;12.27;;;5.22;;
67747;SDS011;54543;50.712;6.070;2022-12-19T08:23:38;12.55;;;5.65;;
67747;SDS011;54543;50.712;6.070;2022-12-19T08:26:08;11.38;;;5.32;;
67747;SDS011;54543;50.712;6.070;2022-12-19T08:28:36;11.45;;;5.57;;
67747;SDS011;54543;50.712;6.070;2022-12-19T08:31:05;15.05;;;5.80;;
67747;SDS011;54543;50.712;6.070;2022-12-19T08:33:32;13.25;;;5.97;;
67747;SDS011;54543;50.712;6.070;2022-12-19T08:36:01;11.32;;;6.45;;
67747;SDS011;54543;50.712;6.070;2022-12-19T08:38:28;14.07;;;5.90;;
67747;SDS011;54543;50.712;6.070;2022-12-19T08:40:53;10.20;;;4.80;;
67747;SDS011;54543;50.712;6.070;2022-12-19T08:43:20;11.38;;;5.45;;
67747;SDS011;54543;50.712;6.070;2022-12-19T08:45:47;9.70;;;4.68;;
67747;SDS011;54543;50.712;6.070;2022-12-19T08:48:13;9.65;;;5.00;;
67747;SDS011;54543;50.712;6.070;2022-12-19T08:50:39;7.82;;;3.75;;
67747;SDS011;54543;50.712;6.070;2022-12-19T08:53:04;11.80;;;5.00;;
67747;SDS011;54543;50.712;6.070;2022-12-19T08:55:30;8.35;;;3.80;;
67747;SDS011;54543;50.712;6.070;2022-12-19T08:57:55;8.90;;;4.63;;
67747;SDS011;54543;50.712;6.070;2022-12-19T09:00:21;8.75;;;3.88;;
67747;SDS011;54543;50.712;6.070;2022-12-19T09:02:46;9.75;;;4.85;;
67747;SDS011;54543;50.712;6.070;2022-12-19T09:05:12;7.38;;;4.45;;
67747;SDS011;54543;50.712;6.070;2022-12-19T09:07:37;7.75;;;4.80;;
67747;SDS011;54543;50.712;6.070;2022-12-19T09:10:05;9.48;;;5.38;;
67747;SDS011;54543;50.712;6.070;2022-12-19T09:12:31;9.88;;;5.63;;
67747;SDS011;54543;50.712;6.070;2022-12-19T09:14:57;9.27;;;5.25;;
67747;SDS011;54543;50.712;6.070;2022-12-19T09:17:22;9.75;;;6.07;;
67747;SDS011;54543;50.712;6.070;2022-12-19T09:19:48;10.10;;;5.15;;
67747;SDS011;54543;50.712;6.070;2022-12-19T09:22:13;8.77;;;5.07;;
67747;SDS011;54543;50.712;6.070;2022-12-19T09:24:39;8.15;;;4.63;;
67747;SDS011;54543;50.712;6.070;2022-12-19T09:27:04;5.88;;;3.72;;
67747;SDS011;54543;50.712;6.070;2022-12-19T09:29:30;8.45;;;4.15;;
67747;SDS011;54543;50.712;6.070;2022-12-19T09:31:56;8.52;;;5.25;;
67747;SDS011;54543;50.712;6.070;2022-12-19T09:34:22;8.00;;;4.20;;
67747;SDS011;54543;50.712;6.070;2022-12-19T09:36:48;8.73;;;4.50;;
67747;SDS011;54543;50.712;6.070;2022-12-19T09:39:14;9.10;;;5.25;;
67747;SDS011;54543;50.712;6.070;2022-12-19T09:47:08;7.60;;;3.92;;
67747;SDS011;54543;50.712;6.070;2022-12-19T09:49:44;5.72;;;3.58;;
67747;SDS011;54543;50.712;6.070;2022-12-19T09:52:16;9.10;;;4.82;;
67747;SDS011;54543;50.712;6.070;2022-12-19T09:59:57;5.28;;;3.28;;
67747;SDS011;54543;50.712;6.070;2022-12-19T10:07:42;6.72;;;3.90;;
67747;SDS011;54543;50.712;6.070;2022-12-19T10:10:13;9.77;;;4.57;;
67747;SDS011;54543;50.712;6.070;2022-12-19T10:12:52;7.05;;;4.55;;
67747;SDS011;54543;50.712;6.070;2022-12-19T10:24:01;5.97;;;4.00;;
67747;SDS011;54543;50.712;6.070;2022-12-19T10:27:09;6.38;;;4.10;;
67747;SDS011;54543;50.712;6.070;2022-12-19T10:29:54;5.13;;;2.92;;
67747;SDS011;54543;50.712;6.070;2022-12-19T10:35:25;6.50;;;3.13;;
67747;SDS011;54543;50.712;6.070;2022-12-19T10:43:19;6.32;;;3.40;;
67747;SDS011;54543;50.712;6.070;2022-12-19T10:45:56;4.90;;;3.00;;
67747;SDS011;54543;50.712;6.070;2022-12-19T10:48:24;6.45;;;3.38;;
67747;SDS011;54543;50.712;6.070;2022-12-19T10:50:50;6.55;;;3.15;;
67747;SDS011;54543;50.712;6.070;2022-12-19T10:53:16;5.70;;;2.90;;
67747;SDS011;54543;50.712;6.070;2022-12-19T10:55:51;4.22;;;2.47;;
67747;SDS011;54543;50.712;6.070;2022-12-19T11:03:39;4.82;;;3.13;;
67747;SDS011;54543;50.712;6.070;2022-12-19T11:06:26;4.13;;;2.90;;
67747;SDS011;54543;50.712;6.070;2022-12-19T11:09:00;5.57;;;2.92;;
67747;SDS011;54543;50.712;6.070;2022-12-19T11:11:48;5.13;;;3.38;;
67747;SDS011;54543;50.712;6.070;2022-12-19T11:14:21;6.43;;;3.50;;
67747;SDS011;54543;50.712;6.070;2022-12-19T11:16:49;5.70;;;3.50;;
67747;SDS011;54543;50.712;6.070;2022-12-19T11:19:25;5.93;;;3.30;;
67747;SDS011;54543;50.712;6.070;2022-12-19T11:22:04;5.93;;;3.13;;
67747;SDS011;54543;50.712;6.070;2022-12-19T11:24:36;4.78;;;2.83;;
67747;SDS011;54543;50.712;6.070;2022-12-19T11:29:53;4.78;;;2.80;;
67747;SDS011;54543;50.712;6.070;2022-12-19T11:32:30;5.70;;;3.10;;
67747;SDS011;54543;50.712;6.070;2022-12-19T11:35:01;5.70;;;2.95;;
67747;SDS011;54543;50.712;6.070;2022-12-19T11:37:35;4.72;;;2.78;;
67747;SDS011;54543;50.712;6.070;2022-12-19T11:40:53;4.80;;;2.80;;
67747;SDS011;54543;50.712;6.070;2022-12-19T11:45:57;7.22;;;4.47;;
67747;SDS011;54543;50.712;6.070;2022-12-19T11:51:38;4.93;;;3.25;;
67747;SDS011;54543;50.712;6.070;2022-12-19T11:54:17;6.32;;;3.85;;
67747;SDS011;54543;50.712;6.070;2022-12-19T11:56:49;7.13;;;3.53;;
67747;SDS011;54543;50.712;6.070;2022-12-19T11:59:33;5.35;;;3.63;;
67747;SDS011;54543;50.712;6.070;2022-12-19T12:07:31;8.38;;;4.78;;
67747;SDS011;54543;50.712;6.070;2022-12-19T12:12:50;5.63;;;3.58;;
67747;SDS011;54543;50.712;6.070;2022-12-19T12:15:38;8.77;;;6.22;;
67747;SDS011;54543;50.712;6.070;2022-12-19T12:18:27;9.18;;;5.43;;
67747;SDS011;54543;50.712;6.070;2022-12-19T12:26:44;5.15;;;3.60;;
67747;SDS011;54543;50.712;6.070;2022-12-19T12:37:35;7.57;;;4.07;;
67747;SDS011;54543;50.712;6.070;2022-12-19T12:40:18;7.25;;;4.22;;
67747;SDS011;54543;50.712;6.070;2022-12-19T12:43:14;5.97;;;3.95;;
67747;SDS011;54543;50.712;6.070;2022-12-19T12:46:01;6.75;;;3.53;;
67747;SDS011;54543;50.712;6.070;2022-12-19T12:51:07;8.32;;;4.65;;
67747;SDS011;54543;50.712;6.070;2022-12-19T12:53:36;5.72;;;3.53;;
67747;SDS011;54543;50.712;6.070;2022-12-19T12:56:05;7.22;;;3.70;;
67747;SDS011;54543;50.712;6.070;2022-12-19T13:11:44;6.85;;;4.40;;
67747;SDS011;54543;50.712;6.070;2022-12-19T13:16:59;9.65;;;5.78;;
67747;SDS011;54543;50.712;6.070;2022-12-19T13:19:33;7.90;;;4.30;;
67747;SDS011;54543;50.712;6.070;2022-12-19T13:24:42;5.50;;;3.17;;
67747;SDS011;54543;50.712;6.070;2022-12-19T13:32:23;4.93;;;3.22;;
67747;SDS011;54543;50.712;6.070;2022-12-19T13:34:59;5.78;;;3.30;;
67747;SDS011;54543;50.712;6.070;2022-12-19T13:37:27;6.65;;;3.33;;
67747;SDS011;54543;50.712;6.070;2022-12-19T13:42:21;10.63;;;6.72;;
67747;SDS011;54543;50.712;6.070;2022-12-19T13:45:10;9.18;;;5.40;;
67747;SDS011;54543;50.712;6.070;2022-12-19T13:47:41;8.63;;;4.50;;
67747;SDS011;54543;50.712;6.070;2022-12-19T13:50:17;8.48;;;4.80;;
67747;SDS011;54543;50.712;6.070;2022-12-19T13:52:49;7.78;;;4.75;;
67747;SDS011;54543;50.712;6.070;2022-12-19T13:55:16;6.80;;;3.95;;
67747;SDS011;54543;50.712;6.070;2022-12-19T13:57:41;6.03;;;4.00;;
67747;SDS011;54543;50.712;6.070;2022-12-19T14:00:10;7.70;;;4.72;;
67747;SDS011;54543;50.712;6.070;2022-12-19T14:02:54;5.57;;;3.83;;
67747;SDS011;54543;50.712;6.070;2022-12-19T14:05:26;8.50;;;5.20;;
67747;SDS011;54543;50.712;6.070;2022-12-19T14:07:55;7.63;;;4.70;;
67747;SDS011;54543;50.712;6.070;2022-12-19T14:10:23;5.45;;;3.70;;
67747;SDS011;54543;50.712;6.070;2022-12-19T14:12:52;4.78;;;3.05;;
67747;SDS011;54543;50.712;6.070;2022-12-19T14:15:38;6.45;;;2.97;;
67747;SDS011;54543;50.712;6.070;2022-12-19T14:18:18;7.40;;;3.55;;
67747;SDS011;54543;50.712;6.070;2022-12-19T14:20:46;8.48;;;4.68;;
67747;SDS011;54543;50.712;6.070;2022-12-19T14:23:13;9.20;;;5.00;;
67747;SDS011;54543;50.712;6.070;2022-12-19T14:28:58;7.70;;;4.68;;
67747;SDS011;54543;50.712;6.070;2022-12-19T14:30:59;6.63;;;3.72;;
67747;SDS011;54543;50.712;6.070;2022-12-19T14:33:33;6.55;;;3.80;;
67747;SDS011;54543;50.712;6.070;2022-12-19T14:36:03;7.18;;;3.30;;
67747;SDS011;54543;50.712;6.070;2022-12-19T14:38:30;5.30;;;3.30;;
67747;SDS011;54543;50.712;6.070;2022-12-19T14:40:58;8.30;;;3.90;;
67747;SDS011;54543;50.712;6.070;2022-12-19T14:43:27;8.07;;;4.50;;
67747;SDS011;54543;50.712;6.070;2022-12-19T14:46:22;6.82;;;3.60;;
67747;SDS011;54543;50.712;6.070;2022-12-19T14:51:26;10.95;;;6.60;;
67747;SDS011;54543;50.712;6.070;2022-12-19T14:54:03;4.97;;;3.28;;
67747;SDS011;54543;50.712;6.070;2022-12-19T14:56:54;6.47;;;3.97;;
67747;SDS011;54543;50.712;6.070;2022-12-19T15:02:00;7.45;;;4.82;;
67747;SDS011;54543;50.712;6.070;2022-12-19T15:04:47;8.90;;;4.07;;
67747;SDS011;54543;50.712;6.070;2022-12-19T15:07:25;5.65;;;3.78;;
67747;SDS011;54543;50.712;6.070;2022-12-19T15:18:36;7.53;;;4.90;;
67747;SDS011;54543;50.712;6.070;2022-12-19T15:20:58;4.45;;;2.72;;
67747;SDS011;54543;50.712;6.070;2022-12-19T15:23:26;9.43;;;4.68;;
67747;SDS011;54543;50.712;6.070;2022-12-19T15:25:53;6.70;;;3.00;;
67747;SDS011;54543;50.712;6.070;2022-12-19T15:28:21;8.82;;;4.25;;
67747;SDS011;54543;50.712;6.070;2022-12-19T15:30:52;7.05;;;4.20;;
67747;SDS011;54543;50.712;6.070;2022-12-19T15:33:22;6.90;;;3.75;;
67747;SDS011;54543;50.712;6.070;2022-12-19T15:35:47;5.82;;;3.42;;
67747;SDS011;54543;50.712;6.070;2022-12-19T15:38:13;5.55;;;3.63;;
67747;SDS011;54543;50.712;6.070;2022-12-19T15:40:39;7.32;;;4.35;;
67747;SDS011;54543;50.712;6.070;2022-12-19T15:43:18;5.85;;;3.08;;
67747;SDS011;54543;50.712;6.070;2022-12-19T15:45:54;4.22;;;2.83;;
67747;SDS011;54543;50.712;6.070;2022-12-19T15:48:22;6.22;;;3.17;;
67747;SDS011;54543;50.712;6.070;2022-12-19T15:50:48;6.65;;;3.50;;
67747;SDS011;54543;50.712;6.070;2022-12-19T15:55:48;10.70;;;7.60;;
67747;SDS011;54543;50.712;6.070;2022-12-19T15:58:14;8.15;;;5.00;;
67747;SDS011;54543;50.712;6.070;2022-12-19T16:00:42;8.07;;;4.93;;
67747;SDS011;54543;50.712;6.070;2022-12-19T16:03:14;6.13;;;3.65;;
67747;SDS011;54543;50.712;6.070;2022-12-19T16:05:40;5.43;;;3.17;;
67747;SDS011;54543;50.712;6.070;2022-12-19T16:08:18;7.50;;;4.05;;
67747;SDS011;54543;50.712;6.070;2022-12-19T16:10:47;9.43;;;3.15;;
67747;SDS011;54543;50.712;6.070;2022-12-19T16:13:22;5.68;;;3.03;;
67747;SDS011;54543;50.712;6.070;2022-12-19T16:15:49;6.20;;;3.15;;
67747;SDS011;54543;50.712;6.070;2022-12-19T16:18:16;6.50;;;3.85;;
67747;SDS011;54543;50.712;6.070;2022-12-19T16:20:43;5.82;;;3.58;;
67747;SDS011;54543;50.712;6.070;2022-12-19T16:23:09;4.75;;;2.63;;
67747;SDS011;54543;50.712;6.070;2022-12-19T16:25:41;7.32;;;4.18;;
67747;SDS011;54543;50.712;6.070;2022-12-19T16:28:24;7.63;;;4.35;;
67747;SDS011;54543;50.712;6.070;2022-12-19T16:30:54;8.48;;;4.40;;
67747;SDS011;54543;50.712;6.070;2022-12-19T16:33:21;8.68;;;5.53;;
67747;SDS011;54543;50.712;6.070;2022-12-19T16:35:48;32.60;;;27.70;;
67747;SDS011;54543;50.712;6.070;2022-12-19T16:38:15;11.88;;;10.02;;
67747;SDS011;54543;50.712;6.070;2022-12-19T16:40:41;10.77;;;9.40;;
67747;SDS011;54543;50.712;6.070;2022-12-19T16:43:15;9.27;;;7.30;;
67747;SDS011;54543;50.712;6.070;2022-12-19T16:45:47;7.43;;;5.40;;
67747;SDS011;54543;50.712;6.070;2022-12-19T16:48:15;9.07;;;5.22;;
67747;SDS011;54543;50.712;6.070;2022-12-19T16:50:43;5.78;;;4.20;;
67747;SDS011;54543;50.712;6.070;2022-12-19T16:53:08;7.57;;;5.25;;
67747;SDS011;54543;50.712;6.070;2022-12-19T16:55:34;10.73;;;5.72;;
67747;SDS011;54543;50.712;6.070;2022-12-19T16:57:59;9.10;;;5.00;;
67747;SDS011;54543;50.712;6.070;2022-12-19T17:00:25;7.93;;;4.50;;
67747;SDS011;54543;50.712;6.070;2022-12-19T17:05:44;6.45;;;4.20;;
67747;SDS011;54543;50.712;6.070;2022-12-19T17:08:10;5.20;;;3.65;;
67747;SDS011;54543;50.712;6.070;2022-12-19T17:10:37;6.97;;;4.07;;
67747;SDS011;54543;50.712;6.070;2022-12-19T17:13:04;7.70;;;4.30;;
67747;SDS011;54543;50.712;6.070;2022-12-19T17:15:31;5.85;;;3.83;;
67747;SDS011;54543;50.712;6.070;2022-12-19T17:18:02;9.57;;;5.65;;
67747;SDS011;54543;50.712;6.070;2022-12-19T17:20:39;5.70;;;4.00;;
67747;SDS011;54543;50.712;6.070;2022-12-19T17:23:11;6.38;;;3.53;;
67747;SDS011;54543;50.712;6.070;2022-12-19T17:25:40;6.13;;;3.88;;
67747;SDS011;54543;50.712;6.070;2022-12-19T17:28:05;7.22;;;5.03;;
67747;SDS011;54543;50.712;6.070;2022-12-19T17:30:31;6.80;;;4.25;;
67747;SDS011;54543;50.712;6.070;2022-12-19T17:32:59;5.82;;;3.90;;
67747;SDS011;54543;50.712;6.070;2022-12-19T17:35:25;8.00;;;5.07;;